createdAt,value
2016-12-16T00:00:02.693Z,1021.3
2016-12-16T00:00:12.687Z,1021.28
2016-12-16T00:00:22.680Z,1021.27
2016-12-16T00:00:32.674Z,1021.29
2016-12-16T00:00:42.669Z,1021.28
2016-12-16T00:00:52.661Z,1021.26
2016-12-16T00:01:02.653Z,1021.26
2016-12-16T00:01:12.648Z,1021.23
2016-12-16T00:01:22.639Z,1021.23
2016-12-16T00:01:32.635Z,1021.26
2016-12-16T00:01:42.629Z,1021.27
2016-12-16T00:01:52.620Z,1021.23
2016-12-16T00:02:02.617Z,1021.24
2016-12-16T00:02:12.610Z,1021.23
2016-12-16T00:02:22.603Z,1021.26
2016-12-16T00:02:32.596Z,1021.24
2016-12-16T00:02:42.590Z,1021.26
2016-12-16T00:02:52.582Z,1021.26
2016-12-16T00:03:02.578Z,1021.21
2016-12-16T00:03:12.570Z,1021.25
2016-12-16T00:03:22.565Z,1021.24
2016-12-16T00:03:32.558Z,1021.23
2016-12-16T00:03:42.549Z,1021.25
2016-12-16T00:03:52.545Z,1021.23
2016-12-16T00:04:02.537Z,1021.2
2016-12-16T00:04:12.532Z,1021.26
2016-12-16T00:04:22.526Z,1021.23
2016-12-16T00:04:32.520Z,1021.21
2016-12-16T00:04:42.514Z,1021.25
2016-12-16T00:04:52.505Z,1021.26
2016-12-16T00:05:02.498Z,1021.18
2016-12-16T00:05:12.493Z,1021.22
2016-12-16T00:05:22.486Z,1021.25
2016-12-16T00:05:32.478Z,1021.18
2016-12-16T00:05:42.473Z,1021.17
2016-12-16T00:05:52.466Z,1021.18
2016-12-16T00:06:02.460Z,1021.22
2016-12-16T00:06:12.455Z,1021.2
2016-12-16T00:06:22.446Z,1021.23
2016-12-16T00:06:32.442Z,1021.2
2016-12-16T00:06:42.435Z,1021.24
2016-12-16T00:06:52.429Z,1021.19
2016-12-16T00:07:02.421Z,1021.23
2016-12-16T00:07:12.518Z,1021.25
2016-12-16T00:07:22.407Z,1021.2
2016-12-16T00:07:32.401Z,1021.22
2016-12-16T00:07:42.396Z,1021.29
2016-12-16T00:07:52.390Z,1021.18
2016-12-16T00:08:02.381Z,1021.22
2016-12-16T00:08:12.375Z,1021.25
2016-12-16T00:08:22.367Z,1021.22
2016-12-16T00:08:32.363Z,1021.26
2016-12-16T00:08:42.356Z,1021.27
2016-12-16T00:08:52.350Z,1021.21
2016-12-16T00:09:02.343Z,1021.19
2016-12-16T00:09:12.337Z,1021.23
2016-12-16T00:09:22.330Z,1021.25
2016-12-16T00:09:32.324Z,1021.26
2016-12-16T00:09:42.319Z,1021.23
2016-12-16T00:09:52.311Z,1021.24
2016-12-16T00:10:02.306Z,1021.25
2016-12-16T00:10:12.298Z,1021.23
2016-12-16T00:10:22.294Z,1021.29
2016-12-16T00:10:32.285Z,1021.29
2016-12-16T00:10:42.278Z,1021.26
2016-12-16T00:10:52.273Z,1021.21
2016-12-16T00:11:02.265Z,1021.22
2016-12-16T00:11:12.262Z,1021.27
2016-12-16T00:11:22.254Z,1021.27
2016-12-16T00:11:32.244Z,1021.29
2016-12-16T00:11:42.237Z,1021.23
2016-12-16T00:11:52.232Z,1021.22
2016-12-16T00:12:02.226Z,1021.26
2016-12-16T00:12:12.219Z,1021.22
2016-12-16T00:12:22.215Z,1021.24
2016-12-16T00:12:32.206Z,1021.26
2016-12-16T00:12:42.199Z,1021.24
2016-12-16T00:12:52.195Z,1021.26
2016-12-16T00:13:02.190Z,1021.28
2016-12-16T00:13:12.182Z,1021.33
2016-12-16T00:13:22.176Z,1021.27
2016-12-16T00:13:32.171Z,1021.24
2016-12-16T00:13:42.161Z,1021.25
2016-12-16T00:13:52.156Z,1021.26
2016-12-16T00:14:02.150Z,1021.22
2016-12-16T00:14:12.146Z,1021.24
2016-12-16T00:14:22.137Z,1021.25
2016-12-16T00:14:32.130Z,1021.23
2016-12-16T00:14:42.123Z,1021.25
2016-12-16T00:14:52.116Z,1021.22
2016-12-16T00:15:02.112Z,1021.21
2016-12-16T00:15:12.102Z,1021.23
2016-12-16T00:15:22.097Z,1021.24
2016-12-16T00:15:32.092Z,1021.18
2016-12-16T00:15:42.085Z,1021.23
2016-12-16T00:15:52.078Z,1021.24
2016-12-16T00:16:02.072Z,1021.25
2016-12-16T00:16:12.065Z,1021.27
2016-12-16T00:16:22.061Z,1021.27
2016-12-16T00:16:32.053Z,1021.24
2016-12-16T00:16:42.047Z,1021.24
2016-12-16T00:16:52.039Z,1021.26
2016-12-16T00:17:02.033Z,1021.25
2016-12-16T00:17:12.027Z,1021.29
2016-12-16T00:17:22.020Z,1021.27
2016-12-16T00:17:32.013Z,1021.24
2016-12-16T00:17:42.005Z,1021.28
2016-12-16T00:17:52.000Z,1021.28
2016-12-16T00:18:01.995Z,1021.26
2016-12-16T00:18:11.987Z,1021.29
2016-12-16T00:18:21.981Z,1021.27
2016-12-16T00:18:31.976Z,1021.31
2016-12-16T00:18:41.967Z,1021.28
2016-12-16T00:18:51.962Z,1021.29
2016-12-16T00:19:01.955Z,1021.25
2016-12-16T00:19:11.947Z,1021.25
2016-12-16T00:19:21.942Z,1021.29
2016-12-16T00:19:31.937Z,1021.26
2016-12-16T00:19:41.928Z,1021.27
2016-12-16T00:19:51.923Z,1021.27
2016-12-16T00:20:01.915Z,1021.23
2016-12-16T00:20:11.910Z,1021.24
2016-12-16T00:20:21.902Z,1021.24
2016-12-16T00:20:31.896Z,1021.26
2016-12-16T00:20:41.889Z,1021.29
2016-12-16T00:20:51.883Z,1021.25
2016-12-16T00:21:01.877Z,1021.24
2016-12-16T00:21:11.872Z,1021.26
2016-12-16T00:21:21.863Z,1021.25
2016-12-16T00:21:31.858Z,1021.25
2016-12-16T00:21:41.867Z,1021.23
2016-12-16T00:21:51.847Z,1021.22
2016-12-16T00:22:01.839Z,1021.23
2016-12-16T00:22:11.831Z,1021.24
2016-12-16T00:22:21.825Z,1021.25
2016-12-16T00:22:31.819Z,1021.26
2016-12-16T00:22:41.810Z,1021.3
2016-12-16T00:22:51.806Z,1021.28
2016-12-16T00:23:01.800Z,1021.32
2016-12-16T00:23:11.793Z,1021.29
2016-12-16T00:23:21.786Z,1021.26
2016-12-16T00:23:31.779Z,1021.25
2016-12-16T00:23:41.875Z,1021.32
2016-12-16T00:23:51.765Z,1021.24
2016-12-16T00:24:01.761Z,1021.25
2016-12-16T00:24:11.755Z,1021.29
2016-12-16T00:24:21.747Z,1021.24
2016-12-16T00:24:31.739Z,1021.23
2016-12-16T00:24:41.734Z,1021.24
2016-12-16T00:24:51.730Z,1021.26
2016-12-16T00:25:01.722Z,1021.22
2016-12-16T00:25:11.715Z,1021.21
2016-12-16T00:25:21.709Z,1021.23
2016-12-16T00:25:31.701Z,1021.23
2016-12-16T00:25:41.697Z,1021.25
2016-12-16T00:25:51.690Z,1021.24
2016-12-16T00:26:01.681Z,1021.29
2016-12-16T00:26:11.675Z,1021.21
2016-12-16T00:26:21.669Z,1021.26
2016-12-16T00:26:31.662Z,1021.27
2016-12-16T00:26:41.656Z,1021.25
2016-12-16T00:26:51.651Z,1021.19
2016-12-16T00:27:01.643Z,1021.21
2016-12-16T00:27:11.637Z,1021.22
2016-12-16T00:27:21.628Z,1021.22
2016-12-16T00:27:31.624Z,1021.25
2016-12-16T00:27:41.618Z,1021.23
2016-12-16T00:27:51.611Z,1021.2
2016-12-16T00:28:01.605Z,1021.2
2016-12-16T00:28:11.597Z,1021.19
2016-12-16T00:28:21.592Z,1021.2
2016-12-16T00:28:31.586Z,1021.2
2016-12-16T00:28:41.913Z,1021.23
2016-12-16T00:28:51.573Z,1021.25
2016-12-16T00:29:01.566Z,1021.22
2016-12-16T00:29:11.558Z,1021.24
2016-12-16T00:29:21.555Z,1021.18
2016-12-16T00:29:31.545Z,1021.17
2016-12-16T00:29:41.541Z,1021.17
2016-12-16T00:29:51.534Z,1021.21
2016-12-16T00:30:01.525Z,1021.19
2016-12-16T00:30:11.521Z,1021.24
2016-12-16T00:30:21.514Z,1021.2
2016-12-16T00:30:31.506Z,1021.18
2016-12-16T00:30:41.500Z,1021.22
2016-12-16T00:30:51.494Z,1021.23
2016-12-16T00:31:01.489Z,1021.18
2016-12-16T00:31:11.481Z,1021.21
2016-12-16T00:31:21.475Z,1021.22
2016-12-16T00:31:31.481Z,1021.2
2016-12-16T00:31:41.461Z,1021.23
2016-12-16T00:31:51.456Z,1021.14
2016-12-16T00:32:01.446Z,1021.21
2016-12-16T00:32:11.464Z,1021.2
2016-12-16T00:32:21.436Z,1021.18
2016-12-16T00:32:31.430Z,1021.22
2016-12-16T00:32:41.423Z,1021.22
2016-12-16T00:32:51.416Z,1021.19
2016-12-16T00:33:01.433Z,1021.24
2016-12-16T00:33:11.406Z,1021.21
2016-12-16T00:33:21.397Z,1021.2
2016-12-16T00:33:31.390Z,1021.21
2016-12-16T00:33:41.384Z,1021.2
2016-12-16T00:33:51.379Z,1021.2
2016-12-16T00:34:01.371Z,1021.21
2016-12-16T00:34:11.365Z,1021.25
2016-12-16T00:34:21.370Z,1021.15
2016-12-16T00:34:31.352Z,1021.19
2016-12-16T00:34:41.344Z,1021.21
2016-12-16T00:34:51.339Z,1021.22
2016-12-16T00:35:01.333Z,1021.23
2016-12-16T00:35:11.325Z,1021.25
2016-12-16T00:35:21.319Z,1021.22
2016-12-16T00:35:31.312Z,1021.21
2016-12-16T00:35:41.305Z,1021.18
2016-12-16T00:35:51.300Z,1021.2
2016-12-16T00:36:01.292Z,1021.2
2016-12-16T00:36:11.298Z,1021.18
2016-12-16T00:36:21.281Z,1021.2
2016-12-16T00:36:31.273Z,1021.25
2016-12-16T00:36:41.267Z,1021.23
2016-12-16T00:36:51.261Z,1021.2
2016-12-16T00:37:01.253Z,1021.22
2016-12-16T00:37:11.249Z,1021.22
2016-12-16T00:37:21.240Z,1021.23
2016-12-16T00:37:31.235Z,1021.24
2016-12-16T00:37:41.229Z,1021.25
2016-12-16T00:37:51.222Z,1021.23
2016-12-16T00:38:01.214Z,1021.22
2016-12-16T00:38:11.208Z,1021.22
2016-12-16T00:38:21.203Z,1021.19
2016-12-16T00:38:31.193Z,1021.21
2016-12-16T00:38:41.213Z,1021.25
2016-12-16T00:38:51.182Z,1021.29
2016-12-16T00:39:01.177Z,1021.26
2016-12-16T00:39:11.169Z,1021.23
2016-12-16T00:39:21.164Z,1021.19
2016-12-16T00:39:31.157Z,1021.23
2016-12-16T00:39:41.149Z,1021.2
2016-12-16T00:39:51.141Z,1021.25
2016-12-16T00:40:01.137Z,1021.26
2016-12-16T00:40:11.128Z,1021.25
2016-12-16T00:40:21.126Z,1021.22
2016-12-16T00:40:31.117Z,1021.29
2016-12-16T00:40:41.112Z,1021.26
2016-12-16T00:40:51.103Z,1021.24
2016-12-16T00:41:01.098Z,1021.25
2016-12-16T00:41:11.093Z,1021.21
2016-12-16T00:41:21.086Z,1021.27
2016-12-16T00:41:31.079Z,1021.26
2016-12-16T00:41:41.071Z,1021.21
2016-12-16T00:41:51.063Z,1021.24
2016-12-16T00:42:01.394Z,1021.25
2016-12-16T00:42:11.054Z,1021.24
2016-12-16T00:42:21.045Z,1021.3
2016-12-16T00:42:31.040Z,1021.26
2016-12-16T00:42:41.033Z,1021.28
2016-12-16T00:42:51.026Z,1021.3
2016-12-16T00:43:01.356Z,1021.23
2016-12-16T00:43:11.011Z,1021.27
2016-12-16T00:43:21.008Z,1021.23
2016-12-16T00:43:31.104Z,1021.27
2016-12-16T00:43:41.002Z,1021.25
2016-12-16T00:43:50.988Z,1021.26
2016-12-16T00:44:00.980Z,1021.26
2016-12-16T00:44:10.975Z,1021.22
2016-12-16T00:44:20.968Z,1021.25
2016-12-16T00:44:30.960Z,1021.24
2016-12-16T00:44:40.954Z,1021.26
2016-12-16T00:44:50.949Z,1021.29
2016-12-16T00:45:00.943Z,1021.29
2016-12-16T00:45:10.935Z,1021.29
2016-12-16T00:45:20.928Z,1021.29
2016-12-16T00:45:30.923Z,1021.28
2016-12-16T00:45:40.917Z,1021.28
2016-12-16T00:45:50.911Z,1021.26
2016-12-16T00:46:00.905Z,1021.24
2016-12-16T00:46:10.901Z,1021.26
2016-12-16T00:46:20.890Z,1021.24
2016-12-16T00:46:30.883Z,1021.21
2016-12-16T00:46:40.876Z,1021.21
2016-12-16T00:46:51.205Z,1021.19
2016-12-16T00:47:00.865Z,1021.26
2016-12-16T00:47:10.859Z,1021.26
2016-12-16T00:47:20.853Z,1021.24
2016-12-16T00:47:30.842Z,1021.23
2016-12-16T00:47:40.838Z,1021.26
2016-12-16T00:47:50.833Z,1021.25
2016-12-16T00:48:00.824Z,1021.28
2016-12-16T00:48:10.817Z,1021.26
2016-12-16T00:48:20.812Z,1021.24
2016-12-16T00:48:30.806Z,1021.23
2016-12-16T00:48:40.797Z,1021.19
2016-12-16T00:48:50.792Z,1021.25
2016-12-16T00:49:00.786Z,1021.18
2016-12-16T00:49:10.780Z,1021.22
2016-12-16T00:49:20.774Z,1021.22
2016-12-16T00:49:30.766Z,1021.24
2016-12-16T00:49:40.760Z,1021.2
2016-12-16T00:49:50.752Z,1021.24
2016-12-16T00:50:00.747Z,1021.26
2016-12-16T00:50:10.740Z,1021.17
2016-12-16T00:50:20.734Z,1021.2
2016-12-16T00:50:30.729Z,1021.23
2016-12-16T00:50:40.721Z,1021.25
2016-12-16T00:50:50.715Z,1021.22
2016-12-16T00:51:00.709Z,1021.22
2016-12-16T00:51:10.702Z,1021.14
2016-12-16T00:51:20.695Z,1021.17
2016-12-16T00:51:30.690Z,1021.21
2016-12-16T00:51:40.683Z,1021.17
2016-12-16T00:51:50.675Z,1021.2
2016-12-16T00:52:00.667Z,1021.2
2016-12-16T00:52:10.662Z,1021.22
2016-12-16T00:52:20.657Z,1021.26
2016-12-16T00:52:30.649Z,1021.26
2016-12-16T00:52:40.643Z,1021.28
2016-12-16T00:52:50.636Z,1021.27
2016-12-16T00:53:00.630Z,1021.25
2016-12-16T00:53:10.622Z,1021.2
2016-12-16T00:53:20.619Z,1021.18
2016-12-16T00:53:30.611Z,1021.24
2016-12-16T00:53:40.604Z,1021.23
2016-12-16T00:53:50.598Z,1021.23
2016-12-16T00:54:00.593Z,1021.21
2016-12-16T00:54:10.587Z,1021.28
2016-12-16T00:54:20.577Z,1021.22
2016-12-16T00:54:30.571Z,1021.24
2016-12-16T00:54:40.564Z,1021.25
2016-12-16T00:54:50.559Z,1021.25
2016-12-16T00:55:00.553Z,1021.21
2016-12-16T00:55:10.546Z,1021.23
2016-12-16T00:55:20.539Z,1021.23
2016-12-16T00:55:30.532Z,1021.28
2016-12-16T00:55:40.526Z,1021.25
2016-12-16T00:55:50.519Z,1021.25
2016-12-16T00:56:00.512Z,1021.23
2016-12-16T00:56:10.507Z,1021.24
2016-12-16T00:56:20.499Z,1021.28
2016-12-16T00:56:30.494Z,1021.24
2016-12-16T00:56:40.485Z,1021.29
2016-12-16T00:56:50.482Z,1021.24
2016-12-16T00:57:00.475Z,1021.31
2016-12-16T00:57:10.469Z,1021.29
2016-12-16T00:57:20.460Z,1021.29
2016-12-16T00:57:30.453Z,1021.24
2016-12-16T00:57:40.448Z,1021.27
2016-12-16T00:57:50.442Z,1021.27
2016-12-16T00:58:00.435Z,1021.28
2016-12-16T00:58:10.429Z,1021.32
2016-12-16T00:58:20.422Z,1021.29
2016-12-16T00:58:30.416Z,1021.32
2016-12-16T00:58:40.408Z,1021.31
2016-12-16T00:58:50.402Z,1021.28
2016-12-16T00:59:00.396Z,1021.31
2016-12-16T00:59:10.390Z,1021.32
2016-12-16T00:59:20.383Z,1021.32
2016-12-16T00:59:30.377Z,1021.28
2016-12-16T00:59:40.370Z,1021.29
2016-12-16T00:59:50.363Z,1021.3
2016-12-16T01:00:00.358Z,1021.3
2016-12-16T01:00:10.352Z,1021.3
2016-12-16T01:00:20.346Z,1021.3
2016-12-16T01:00:30.340Z,1021.34
2016-12-16T01:00:40.332Z,1021.31
2016-12-16T01:00:50.325Z,1021.32
2016-12-16T01:01:00.317Z,1021.31
2016-12-16T01:01:10.310Z,1021.32
2016-12-16T01:01:20.306Z,1021.39
2016-12-16T01:01:30.298Z,1021.31
2016-12-16T01:01:40.293Z,1021.3
2016-12-16T01:01:50.285Z,1021.34
2016-12-16T01:02:00.280Z,1021.28
2016-12-16T01:02:10.272Z,1021.3
2016-12-16T01:02:20.265Z,1021.3
2016-12-16T01:02:30.260Z,1021.31
2016-12-16T01:02:40.252Z,1021.33
2016-12-16T01:02:50.247Z,1021.34
2016-12-16T01:03:00.242Z,1021.33
2016-12-16T01:03:10.233Z,1021.33
2016-12-16T01:03:20.228Z,1021.36
2016-12-16T01:03:30.221Z,1021.33
2016-12-16T01:03:40.234Z,1021.36
2016-12-16T01:03:50.208Z,1021.36
2016-12-16T01:04:00.200Z,1021.33
2016-12-16T01:04:10.194Z,1021.4
2016-12-16T01:04:20.188Z,1021.38
2016-12-16T01:04:30.181Z,1021.37
2016-12-16T01:04:40.174Z,1021.3
2016-12-16T01:04:50.169Z,1021.36
2016-12-16T01:05:00.161Z,1021.31
2016-12-16T01:05:10.157Z,1021.34
2016-12-16T01:05:20.147Z,1021.32
2016-12-16T01:05:30.142Z,1021.37
2016-12-16T01:05:40.134Z,1021.35
2016-12-16T01:05:50.128Z,1021.39
2016-12-16T01:06:00.122Z,1021.36
2016-12-16T01:06:10.117Z,1021.34
2016-12-16T01:06:20.110Z,1021.33
2016-12-16T01:06:30.103Z,1021.37
2016-12-16T01:06:40.097Z,1021.34
2016-12-16T01:06:50.091Z,1021.33
2016-12-16T01:07:00.085Z,1021.3
2016-12-16T01:07:10.077Z,1021.33
2016-12-16T01:07:20.072Z,1021.34
2016-12-16T01:07:30.065Z,1021.32
2016-12-16T01:07:40.059Z,1021.32
2016-12-16T01:07:50.052Z,1021.28
2016-12-16T01:08:00.044Z,1021.33
2016-12-16T01:08:10.039Z,1021.37
2016-12-16T01:08:20.032Z,1021.35
2016-12-16T01:08:30.025Z,1021.32
2016-12-16T01:08:40.018Z,1021.27
2016-12-16T01:08:50.011Z,1021.29
2016-12-16T01:09:00.008Z,1021.3
2016-12-16T01:09:10.332Z,1021.29
2016-12-16T01:09:19.993Z,1021.31
2016-12-16T01:09:29.987Z,1021.29
2016-12-16T01:09:39.980Z,1021.33
2016-12-16T01:09:49.973Z,1021.28
2016-12-16T01:09:59.967Z,1021.31
2016-12-16T01:10:09.960Z,1021.3
2016-12-16T01:10:19.952Z,1021.33
2016-12-16T01:10:29.946Z,1021.31
2016-12-16T01:10:39.939Z,1021.39
2016-12-16T01:10:49.934Z,1021.29
2016-12-16T01:10:59.925Z,1021.36
2016-12-16T01:11:09.921Z,1021.33
2016-12-16T01:11:19.914Z,1021.34
2016-12-16T01:11:29.907Z,1021.33
2016-12-16T01:11:39.901Z,1021.31
2016-12-16T01:11:50.229Z,1021.32
2016-12-16T01:11:59.889Z,1021.31
2016-12-16T01:12:09.882Z,1021.31
2016-12-16T01:12:19.875Z,1021.31
2016-12-16T01:12:29.869Z,1021.29
2016-12-16T01:12:39.862Z,1021.35
2016-12-16T01:12:49.857Z,1021.32
2016-12-16T01:12:59.847Z,1021.31
2016-12-16T01:13:09.843Z,1021.32
2016-12-16T01:13:19.836Z,1021.35
2016-12-16T01:13:29.831Z,1021.37
2016-12-16T01:13:39.822Z,1021.37
2016-12-16T01:13:49.816Z,1021.36
2016-12-16T01:13:59.810Z,1021.36
2016-12-16T01:14:09.804Z,1021.38
2016-12-16T01:14:19.796Z,1021.32
2016-12-16T01:14:29.791Z,1021.35
2016-12-16T01:14:39.785Z,1021.38
2016-12-16T01:14:49.777Z,1021.37
2016-12-16T01:14:59.771Z,1021.36
2016-12-16T01:15:09.761Z,1021.32
2016-12-16T01:15:19.758Z,1021.36
2016-12-16T01:15:29.752Z,1021.37
2016-12-16T01:15:39.746Z,1021.36
2016-12-16T01:15:49.739Z,1021.3
2016-12-16T01:15:59.730Z,1021.35
2016-12-16T01:16:09.726Z,1021.37
2016-12-16T01:16:19.719Z,1021.4
2016-12-16T01:16:29.711Z,1021.39
2016-12-16T01:16:39.706Z,1021.37
2016-12-16T01:16:49.698Z,1021.38
2016-12-16T01:16:59.691Z,1021.32
2016-12-16T01:17:09.687Z,1021.34
2016-12-16T01:17:19.680Z,1021.34
2016-12-16T01:17:29.673Z,1021.36
2016-12-16T01:17:39.667Z,1021.37
2016-12-16T01:17:49.659Z,1021.36
2016-12-16T01:17:59.654Z,1021.37
2016-12-16T01:18:09.647Z,1021.41
2016-12-16T01:18:19.641Z,1021.33
2016-12-16T01:18:29.636Z,1021.36
2016-12-16T01:18:39.627Z,1021.33
2016-12-16T01:18:49.619Z,1021.34
2016-12-16T01:18:59.616Z,1021.4
2016-12-16T01:19:09.609Z,1021.32
2016-12-16T01:19:19.602Z,1021.39
2016-12-16T01:19:29.596Z,1021.41
2016-12-16T01:19:39.588Z,1021.37
2016-12-16T01:19:49.580Z,1021.34
2016-12-16T01:19:59.578Z,1021.34
2016-12-16T01:20:09.569Z,1021.39
2016-12-16T01:20:19.563Z,1021.37
2016-12-16T01:20:29.555Z,1021.33
2016-12-16T01:20:39.550Z,1021.39
2016-12-16T01:20:49.544Z,1021.37
2016-12-16T01:20:59.536Z,1021.37
2016-12-16T01:21:09.530Z,1021.36
2016-12-16T01:21:19.523Z,1021.36
2016-12-16T01:21:29.515Z,1021.37
2016-12-16T01:21:39.511Z,1021.39
2016-12-16T01:21:49.503Z,1021.34
2016-12-16T01:21:59.495Z,1021.32
2016-12-16T01:22:09.490Z,1021.39
2016-12-16T01:22:19.485Z,1021.4
2016-12-16T01:22:29.478Z,1021.35
2016-12-16T01:22:39.470Z,1021.37
2016-12-16T01:22:49.467Z,1021.39
2016-12-16T01:22:59.459Z,1021.45
2016-12-16T01:23:09.451Z,1021.4
2016-12-16T01:23:19.445Z,1021.35
2016-12-16T01:23:29.439Z,1021.39
2016-12-16T01:23:39.432Z,1021.34
2016-12-16T01:23:49.426Z,1021.48
2016-12-16T01:23:59.418Z,1021.36
2016-12-16T01:24:09.412Z,1021.37
2016-12-16T01:24:19.406Z,1021.38
2016-12-16T01:24:29.399Z,1021.41
2016-12-16T01:24:39.392Z,1021.42
2016-12-16T01:24:49.386Z,1021.37
2016-12-16T01:24:59.382Z,1021.44
2016-12-16T01:25:09.373Z,1021.41
2016-12-16T01:25:19.368Z,1021.41
2016-12-16T01:25:29.358Z,1021.4
2016-12-16T01:25:39.353Z,1021.45
2016-12-16T01:25:49.348Z,1021.47
2016-12-16T01:25:59.340Z,1021.43
2016-12-16T01:26:09.333Z,1021.44
2016-12-16T01:26:19.328Z,1021.39
2016-12-16T01:26:29.320Z,1021.42
2016-12-16T01:26:39.315Z,1021.44
2016-12-16T01:26:49.309Z,1021.45
2016-12-16T01:26:59.302Z,1021.45
2016-12-16T01:27:09.292Z,1021.4
2016-12-16T01:27:19.289Z,1021.5
2016-12-16T01:27:29.282Z,1021.48
2016-12-16T01:27:39.274Z,1021.49
2016-12-16T01:27:49.270Z,1021.43
2016-12-16T01:27:59.263Z,1021.41
2016-12-16T01:28:09.256Z,1021.44
2016-12-16T01:28:19.248Z,1021.45
2016-12-16T01:28:29.244Z,1021.47
2016-12-16T01:28:39.235Z,1021.48
2016-12-16T01:28:49.229Z,1021.41
2016-12-16T01:28:59.223Z,1021.45
2016-12-16T01:29:09.217Z,1021.43
2016-12-16T01:29:19.210Z,1021.47
2016-12-16T01:29:29.202Z,1021.46
2016-12-16T01:29:39.198Z,1021.47
2016-12-16T01:29:49.191Z,1021.44
2016-12-16T01:29:59.184Z,1021.45
2016-12-16T01:30:09.176Z,1021.49
2016-12-16T01:30:19.170Z,1021.52
2016-12-16T01:30:29.165Z,1021.47
2016-12-16T01:30:39.155Z,1021.5
2016-12-16T01:30:49.162Z,1021.52
2016-12-16T01:30:59.144Z,1021.44
2016-12-16T01:31:09.137Z,1021.51
2016-12-16T01:31:19.131Z,1021.52
2016-12-16T01:31:29.126Z,1021.48
2016-12-16T01:31:39.119Z,1021.5
2016-12-16T01:31:49.113Z,1021.51
2016-12-16T01:31:59.104Z,1021.57
2016-12-16T01:32:09.098Z,1021.58
2016-12-16T01:32:19.093Z,1021.54
2016-12-16T01:32:29.085Z,1021.55
2016-12-16T01:32:39.080Z,1021.55
2016-12-16T01:32:49.074Z,1021.56
2016-12-16T01:32:59.067Z,1021.52
2016-12-16T01:33:09.061Z,1021.57
2016-12-16T01:33:19.053Z,1021.59
2016-12-16T01:33:29.046Z,1021.56
2016-12-16T01:33:39.041Z,1021.55
2016-12-16T01:33:49.033Z,1021.56
2016-12-16T01:33:59.028Z,1021.54
2016-12-16T01:34:09.021Z,1021.55
2016-12-16T01:34:19.347Z,1021.51
2016-12-16T01:34:29.007Z,1021.57
2016-12-16T01:34:39.000Z,1021.54
2016-12-16T01:34:48.994Z,1021.55
2016-12-16T01:34:58.988Z,1021.6
2016-12-16T01:35:08.979Z,1021.52
2016-12-16T01:35:18.974Z,1021.62
2016-12-16T01:35:28.975Z,1021.53
2016-12-16T01:35:38.962Z,1021.55
2016-12-16T01:35:48.955Z,1021.6
2016-12-16T01:35:58.949Z,1021.57
2016-12-16T01:36:08.943Z,1021.56
2016-12-16T01:36:18.934Z,1021.59
2016-12-16T01:36:28.928Z,1021.57
2016-12-16T01:36:38.923Z,1021.58
2016-12-16T01:36:48.915Z,1021.56
2016-12-16T01:36:58.908Z,1021.54
2016-12-16T01:37:08.903Z,1021.58
2016-12-16T01:37:18.902Z,1021.56
2016-12-16T01:37:28.888Z,1021.51
2016-12-16T01:37:38.903Z,1021.51
2016-12-16T01:37:48.876Z,1021.53
2016-12-16T01:37:58.869Z,1021.53
2016-12-16T01:38:08.863Z,1021.48
2016-12-16T01:38:18.858Z,1021.52
2016-12-16T01:38:28.849Z,1021.54
2016-12-16T01:38:38.843Z,1021.55
2016-12-16T01:38:48.837Z,1021.52
2016-12-16T01:38:58.831Z,1021.52
2016-12-16T01:39:08.824Z,1021.57
2016-12-16T01:39:18.818Z,1021.52
2016-12-16T01:39:28.813Z,1021.55
2016-12-16T01:39:38.803Z,1021.55
2016-12-16T01:39:48.799Z,1021.54
2016-12-16T01:39:58.791Z,1021.56
2016-12-16T01:40:08.786Z,1021.54
2016-12-16T01:40:18.779Z,1021.57
2016-12-16T01:40:28.773Z,1021.61
2016-12-16T01:40:38.766Z,1021.55
2016-12-16T01:40:48.759Z,1021.59
2016-12-16T01:40:58.752Z,1021.55
2016-12-16T01:41:08.746Z,1021.54
2016-12-16T01:41:18.738Z,1021.57
2016-12-16T01:41:28.733Z,1021.56
2016-12-16T01:41:38.727Z,1021.55
2016-12-16T01:41:48.719Z,1021.59
2016-12-16T01:41:58.712Z,1021.55
2016-12-16T01:42:08.706Z,1021.56
2016-12-16T01:42:18.701Z,1021.56
2016-12-16T01:42:28.694Z,1021.56
2016-12-16T01:42:38.684Z,1021.58
2016-12-16T01:42:48.679Z,1021.56
2016-12-16T01:42:58.676Z,1021.6
2016-12-16T01:43:08.668Z,1021.54
2016-12-16T01:43:18.661Z,1021.57
2016-12-16T01:43:28.655Z,1021.55
2016-12-16T01:43:38.647Z,1021.52
2016-12-16T01:43:48.640Z,1021.55
2016-12-16T01:43:58.636Z,1021.54
2016-12-16T01:44:08.628Z,1021.57
2016-12-16T01:44:18.622Z,1021.5
2016-12-16T01:44:28.616Z,1021.55
2016-12-16T01:44:38.609Z,1021.54
2016-12-16T01:44:48.619Z,1021.56
2016-12-16T01:44:58.596Z,1021.55
2016-12-16T01:45:08.588Z,1021.58
2016-12-16T01:45:18.582Z,1021.56
2016-12-16T01:45:28.576Z,1021.56
2016-12-16T01:45:38.569Z,1021.55
2016-12-16T01:45:48.563Z,1021.52
2016-12-16T01:45:58.557Z,1021.53
2016-12-16T01:46:08.549Z,1021.56
2016-12-16T01:46:18.543Z,1021.54
2016-12-16T01:46:28.537Z,1021.54
2016-12-16T01:46:38.531Z,1021.54
2016-12-16T01:46:48.523Z,1021.54
2016-12-16T01:46:58.519Z,1021.53
2016-12-16T01:47:08.511Z,1021.5
2016-12-16T01:47:18.502Z,1021.48
2016-12-16T01:47:28.496Z,1021.54
2016-12-16T01:47:38.491Z,1021.58
2016-12-16T01:47:48.485Z,1021.52
2016-12-16T01:47:58.479Z,1021.51
2016-12-16T01:48:08.472Z,1021.53
2016-12-16T01:48:18.466Z,1021.59
2016-12-16T01:48:28.459Z,1021.53
2016-12-16T01:48:38.465Z,1021.52
2016-12-16T01:48:48.445Z,1021.5
2016-12-16T01:48:58.438Z,1021.56
2016-12-16T01:49:08.432Z,1021.53
2016-12-16T01:49:18.425Z,1021.51
2016-12-16T01:49:28.420Z,1021.55
2016-12-16T01:49:38.411Z,1021.54
2016-12-16T01:49:48.404Z,1021.51
2016-12-16T01:49:58.402Z,1021.49
2016-12-16T01:50:08.394Z,1021.5
2016-12-16T01:50:18.721Z,1021.51
2016-12-16T01:50:28.381Z,1021.52
2016-12-16T01:50:38.372Z,1021.5
2016-12-16T01:50:48.701Z,1021.54
2016-12-16T01:50:58.361Z,1021.53
2016-12-16T01:51:08.355Z,1021.5
2016-12-16T01:51:18.347Z,1021.49
2016-12-16T01:51:28.342Z,1021.52
2016-12-16T01:51:38.335Z,1021.55
2016-12-16T01:51:48.341Z,1021.5
2016-12-16T01:51:58.322Z,1021.52
2016-12-16T01:52:08.317Z,1021.48
2016-12-16T01:52:18.308Z,1021.52
2016-12-16T01:52:28.301Z,1021.48
2016-12-16T01:52:38.295Z,1021.57
2016-12-16T01:52:48.290Z,1021.58
2016-12-16T01:52:58.282Z,1021.58
2016-12-16T01:53:08.275Z,1021.55
2016-12-16T01:53:18.269Z,1021.54
2016-12-16T01:53:28.261Z,1021.57
2016-12-16T01:53:38.257Z,1021.56
2016-12-16T01:53:48.250Z,1021.57
2016-12-16T01:53:58.241Z,1021.51
2016-12-16T01:54:08.237Z,1021.56
2016-12-16T01:54:18.229Z,1021.49
2016-12-16T01:54:28.224Z,1021.54
2016-12-16T01:54:38.215Z,1021.54
2016-12-16T01:54:48.210Z,1021.57
2016-12-16T01:54:58.206Z,1021.56
2016-12-16T01:55:08.198Z,1021.53
2016-12-16T01:55:18.189Z,1021.55
2016-12-16T01:55:28.184Z,1021.61
2016-12-16T01:55:38.178Z,1021.63
2016-12-16T01:55:48.171Z,1021.54
2016-12-16T01:55:58.163Z,1021.55
2016-12-16T01:56:08.156Z,1021.61
2016-12-16T01:56:18.151Z,1021.58
2016-12-16T01:56:28.144Z,1021.55
2016-12-16T01:56:38.137Z,1021.56
2016-12-16T01:56:48.132Z,1021.59
2016-12-16T01:56:58.125Z,1021.59
2016-12-16T01:57:08.119Z,1021.54
2016-12-16T01:57:18.111Z,1021.56
2016-12-16T01:57:28.106Z,1021.58
2016-12-16T01:57:38.099Z,1021.57
2016-12-16T01:57:48.093Z,1021.57
2016-12-16T01:57:58.087Z,1021.55
2016-12-16T01:58:08.080Z,1021.59
2016-12-16T01:58:18.073Z,1021.57
2016-12-16T01:58:28.063Z,1021.52
2016-12-16T01:58:38.059Z,1021.62
2016-12-16T01:58:48.054Z,1021.62
2016-12-16T01:58:58.047Z,1021.62
2016-12-16T01:59:08.041Z,1021.53
2016-12-16T01:59:18.033Z,1021.54
2016-12-16T01:59:28.028Z,1021.6
2016-12-16T01:59:38.019Z,1021.57
2016-12-16T01:59:48.013Z,1021.56
2016-12-16T01:59:58.006Z,1021.6
2016-12-16T02:00:08.000Z,1021.58
2016-12-16T02:00:17.995Z,1021.55
2016-12-16T02:00:27.987Z,1021.55
2016-12-16T02:00:37.980Z,1021.6
2016-12-16T02:00:47.973Z,1021.57
2016-12-16T02:00:57.967Z,1021.58
2016-12-16T02:01:07.961Z,1021.61